createdAt,value
2022-11-05T00:09:48.873Z,21.1
2022-11-05T00:19:54.907Z,21
2022-11-05T00:30:00.944Z,21
2022-11-05T00:40:07.013Z,21
2022-11-05T00:50:13.029Z,21
2022-11-05T01:00:19.111Z,21
2022-11-05T01:10:25.125Z,20.9
2022-11-05T01:20:31.174Z,20.9
2022-11-05T01:30:37.205Z,20.9
2022-11-05T01:40:43.278Z,20.9
2022-11-05T01:50:49.323Z,20.9
2022-11-05T02:00:55.377Z,20.9
2022-11-05T02:11:01.414Z,20.8
2022-11-05T02:21:07.478Z,20.8
2022-11-05T02:31:13.513Z,20.8
2022-11-05T02:41:19.575Z,20.8
2022-11-05T02:51:25.598Z,20.8
2022-11-05T03:01:31.829Z,20.8
2022-11-05T03:11:37.679Z,20.7
2022-11-05T03:21:43.766Z,20.7
2022-11-05T03:31:49.807Z,20.7
2022-11-05T03:41:55.865Z,20.7
2022-11-05T03:52:01.873Z,20.7
2022-11-05T04:02:08.117Z,20.7
2022-11-05T04:12:13.996Z,20.7
2022-11-05T04:32:27.981Z,20.6
2022-11-05T04:42:33.986Z,20.6
2022-11-05T04:52:40.070Z,20.6
2022-11-05T05:02:46.100Z,20.6
2022-11-05T05:12:52.169Z,20.5
2022-11-05T05:22:58.191Z,20.5
2022-11-05T05:33:04.265Z,20.5
2022-11-05T05:43:10.580Z,20.5
2022-11-05T05:53:16.375Z,20.5
2022-11-05T06:03:22.411Z,20.5
2022-11-05T06:13:28.537Z,20.4
2022-11-05T06:23:34.494Z,20.4
2022-11-05T06:33:40.542Z,20.4
2022-11-05T06:43:46.576Z,20.4
2022-11-05T06:53:52.625Z,20.4
2022-11-05T07:03:58.680Z,20.4
2022-11-05T07:14:04.928Z,20.3
2022-11-05T07:24:10.760Z,20.3
2022-11-05T07:34:16.919Z,20.3
2022-11-05T07:44:22.858Z,20.3
2022-11-05T07:54:28.927Z,20.3
2022-11-05T08:04:34.960Z,20.3
2022-11-05T08:14:42.933Z,20.3
2022-11-05T08:24:48.947Z,20.3
2022-11-05T08:34:55.001Z,20.2
2022-11-05T08:45:01.029Z,20.3
2022-11-05T08:55:07.103Z,20.3
2022-11-05T09:05:13.203Z,20.2
2022-11-05T09:15:19.352Z,20.2
2022-11-05T09:25:25.227Z,20.2
2022-11-05T09:35:31.287Z,20.2
2022-11-05T09:45:37.302Z,20.2
2022-11-05T09:55:43.384Z,20.2
2022-11-05T10:05:49.511Z,20.2
2022-11-05T10:15:55.568Z,20.3
2022-11-05T10:26:01.497Z,20.3
2022-11-05T10:36:07.562Z,20.4
2022-11-05T10:46:13.608Z,20.4
2022-11-05T10:56:19.688Z,20.4
2022-11-05T11:06:25.693Z,20.4
2022-11-05T11:16:31.792Z,20.4
2022-11-05T11:26:37.812Z,20.4
2022-11-05T11:36:43.856Z,20.4
2022-11-05T11:46:49.878Z,20.4
2022-11-05T11:56:55.972Z,20.4
2022-11-05T12:07:01.998Z,20.3
2022-11-05T12:17:08.055Z,20.3
2022-11-05T12:27:14.110Z,20.3
2022-11-05T12:37:20.153Z,20.3
2022-11-05T12:47:26.172Z,20.3
2022-11-05T12:57:32.261Z,20.3
2022-11-05T13:07:38.274Z,20.3
2022-11-05T13:17:44.331Z,20.2
2022-11-05T13:27:50.361Z,20.2
2022-11-05T13:37:56.465Z,20.2
2022-11-05T13:48:02.464Z,20.2
2022-11-05T13:58:08.537Z,20.2
2022-11-05T14:08:14.564Z,20.2
2022-11-05T14:18:20.813Z,20.2
2022-11-05T14:28:26.659Z,20.2
2022-11-05T14:38:32.756Z,20.2
2022-11-05T14:48:38.735Z,20.2
2022-11-05T14:58:44.811Z,20.2
2022-11-05T15:08:50.833Z,20.2
2022-11-05T15:18:56.926Z,20.2
2022-11-05T15:29:02.956Z,20.2
2022-11-05T15:39:28.345Z,20.1
2022-11-05T15:49:15.041Z,20.1
2022-11-05T15:59:21.105Z,20.1
2022-11-05T16:09:27.111Z,20.1
2022-11-05T16:19:39.558Z,20.1
2022-11-05T16:29:39.256Z,20.1
2022-11-05T16:39:45.287Z,20.1
2022-11-05T16:49:51.344Z,20.1
2022-11-05T16:59:57.436Z,20.1
2022-11-05T17:10:03.430Z,20.1
2022-11-05T17:20:09.651Z,20.1
2022-11-05T17:30:15.496Z,20.1
2022-11-05T17:40:21.598Z,20.1
2022-11-05T17:50:27.632Z,20.1
2022-11-05T18:00:33.667Z,20.1
2022-11-05T18:10:39.716Z,20.1
2022-11-05T18:20:46.050Z,20.2
2022-11-05T18:30:51.822Z,20.1
2022-11-05T18:40:57.895Z,20.1
2022-11-05T18:51:03.897Z,20.1
2022-11-05T19:01:10.058Z,20.1
2022-11-05T19:11:15.995Z,20.1
2022-11-05T19:21:22.162Z,20.1
2022-11-05T19:31:28.105Z,20.1
2022-11-05T19:41:34.163Z,20
2022-11-05T19:51:40.190Z,20
2022-11-05T20:01:46.330Z,20
2022-11-05T20:11:52.296Z,20
2022-11-05T20:21:58.366Z,20
2022-11-05T20:32:04.394Z,20
2022-11-05T20:42:10.463Z,20
2022-11-05T20:52:16.486Z,20
2022-11-05T21:02:22.761Z,20
2022-11-05T21:12:28.592Z,20
2022-11-05T21:22:34.659Z,19.9
2022-11-05T21:32:40.663Z,19.9
2022-11-05T21:42:46.746Z,19.9
2022-11-05T21:52:52.772Z,19.9
2022-11-05T22:02:58.933Z,19.9
2022-11-05T22:13:04.880Z,19.9
2022-11-05T22:23:11.454Z,19.9
2022-11-05T22:33:16.987Z,19.9
2022-11-05T22:43:23.050Z,19.9
2022-11-05T22:53:29.077Z,19.9
2022-11-05T23:03:35.147Z,19.8
2022-11-05T23:13:41.151Z,19.8
2022-11-05T23:23:47.211Z,19.8
2022-11-05T23:33:53.242Z,19.8
2022-11-05T23:43:59.324Z,19.8
2022-11-05T23:54:05.325Z,19.8
